sensor_id;sensor_type;location;lat;lon;timestamp;P1;durP1;ratioP1;P2;durP2;ratioP2
16640;SDS011;8434;47.990;7.880;2022-11-11T00:02:16;2.87;;;1.80;;
16640;SDS011;8434;47.990;7.880;2022-11-11T00:05:01;4.47;;;1.60;;
16640;SDS011;8434;47.990;7.880;2022-11-11T00:07:46;4.53;;;2.00;;
16640;SDS011;8434;47.990;7.880;2022-11-11T00:10:31;3.30;;;1.60;;
16640;SDS011;8434;47.990;7.880;2022-11-11T00:13:15;2.87;;;1.67;;
16640;SDS011;8434;47.990;7.880;2022-11-11T00:16:05;3.07;;;1.70;;
16640;SDS011;8434;47.990;7.880;2022-11-11T00:18:51;3.00;;;1.57;;
16640;SDS011;8434;47.990;7.880;2022-11-11T00:21:54;4.10;;;1.50;;
16640;SDS011;8434;47.990;7.880;2022-11-11T00:24:57;2.67;;;1.60;;
16640;SDS011;8434;47.990;7.880;2022-11-11T00:27:51;3.50;;;1.63;;
16640;SDS011;8434;47.990;7.880;2022-11-11T00:30:36;4.10;;;2.00;;
16640;SDS011;8434;47.990;7.880;2022-11-11T00:33:22;4.23;;;1.30;;
16640;SDS011;8434;47.990;7.880;2022-11-11T00:36:07;2.43;;;1.67;;
16640;SDS011;8434;47.990;7.880;2022-11-11T00:38:52;2.77;;;1.50;;
16640;SDS011;8434;47.990;7.880;2022-11-11T00:41:38;5.77;;;1.80;;
16640;SDS011;8434;47.990;7.880;2022-11-11T00:44:23;4.53;;;1.80;;
16640;SDS011;8434;47.990;7.880;2022-11-11T00:47:07;3.50;;;2.00;;
16640;SDS011;8434;47.990;7.880;2022-11-11T00:50:12;1.93;;;1.73;;
16640;SDS011;8434;47.990;7.880;2022-11-11T00:53:16;3.23;;;1.50;;
16640;SDS011;8434;47.990;7.880;2022-11-11T00:56:01;2.10;;;1.40;;
16640;SDS011;8434;47.990;7.880;2022-11-11T00:58:46;1.73;;;1.43;;
16640;SDS011;8434;47.990;7.880;2022-11-11T01:01:30;4.40;;;1.70;;
16640;SDS011;8434;47.990;7.880;2022-11-11T01:04:16;4.27;;;1.60;;
16640;SDS011;8434;47.990;7.880;2022-11-11T01:07:02;3.47;;;1.40;;
16640;SDS011;8434;47.990;7.880;2022-11-11T01:09:47;1.87;;;1.23;;
16640;SDS011;8434;47.990;7.880;2022-11-11T01:12:32;2.43;;;1.30;;
16640;SDS011;8434;47.990;7.880;2022-11-11T01:15:16;3.47;;;1.50;;
16640;SDS011;8434;47.990;7.880;2022-11-11T01:18:01;3.57;;;1.40;;
16640;SDS011;8434;47.990;7.880;2022-11-11T01:20:46;3.07;;;1.50;;
16640;SDS011;8434;47.990;7.880;2022-11-11T01:23:34;2.53;;;1.13;;
16640;SDS011;8434;47.990;7.880;2022-11-11T01:26:20;1.80;;;1.43;;
16640;SDS011;8434;47.990;7.880;2022-11-11T01:29:05;2.67;;;1.60;;
16640;SDS011;8434;47.990;7.880;2022-11-11T01:31:50;2.33;;;1.20;;
16640;SDS011;8434;47.990;7.880;2022-11-11T01:34:34;7.67;;;1.50;;
16640;SDS011;8434;47.990;7.880;2022-11-11T01:37:19;1.53;;;1.33;;
16640;SDS011;8434;47.990;7.880;2022-11-11T01:40:07;1.33;;;1.23;;
16640;SDS011;8434;47.990;7.880;2022-11-11T01:42:53;1.80;;;1.20;;
16640;SDS011;8434;47.990;7.880;2022-11-11T01:45:49;2.03;;;1.30;;
16640;SDS011;8434;47.990;7.880;2022-11-11T01:48:36;2.43;;;1.10;;
16640;SDS011;8434;47.990;7.880;2022-11-11T01:51:41;1.20;;;1.10;;
16640;SDS011;8434;47.990;7.880;2022-11-11T01:54:29;2.10;;;1.40;;
16640;SDS011;8434;47.990;7.880;2022-11-11T01:57:18;1.70;;;1.20;;
16640;SDS011;8434;47.990;7.880;2022-11-11T02:00:06;4.27;;;1.50;;
16640;SDS011;8434;47.990;7.880;2022-11-11T02:02:54;6.27;;;1.20;;
16640;SDS011;8434;47.990;7.880;2022-11-11T02:05:40;2.60;;;1.47;;
16640;SDS011;8434;47.990;7.880;2022-11-11T02:08:25;2.20;;;1.30;;
16640;SDS011;8434;47.990;7.880;2022-11-11T02:11:17;1.80;;;1.07;;
16640;SDS011;8434;47.990;7.880;2022-11-11T02:14:25;1.50;;;1.20;;
16640;SDS011;8434;47.990;7.880;2022-11-11T02:17:18;6.90;;;1.30;;
16640;SDS011;8434;47.990;7.880;2022-11-11T02:20:04;2.13;;;1.30;;
16640;SDS011;8434;47.990;7.880;2022-11-11T02:22:50;2.10;;;0.93;;
16640;SDS011;8434;47.990;7.880;2022-11-11T02:25:38;4.33;;;1.40;;
16640;SDS011;8434;47.990;7.880;2022-11-11T02:28:24;1.30;;;0.90;;
16640;SDS011;8434;47.990;7.880;2022-11-11T02:31:09;1.57;;;0.90;;
16640;SDS011;8434;47.990;7.880;2022-11-11T02:33:56;44.50;;;3.03;;
16640;SDS011;8434;47.990;7.880;2022-11-11T02:36:41;2.30;;;0.90;;
16640;SDS011;8434;47.990;7.880;2022-11-11T02:39:28;1.77;;;1.10;;
16640;SDS011;8434;47.990;7.880;2022-11-11T02:42:15;3.43;;;1.00;;
16640;SDS011;8434;47.990;7.880;2022-11-11T02:45:01;1.67;;;1.20;;
16640;SDS011;8434;47.990;7.880;2022-11-11T02:47:46;2.20;;;0.93;;
16640;SDS011;8434;47.990;7.880;2022-11-11T02:50:31;1.17;;;1.07;;
16640;SDS011;8434;47.990;7.880;2022-11-11T02:53:16;2.57;;;1.00;;
16640;SDS011;8434;47.990;7.880;2022-11-11T02:56:00;1.20;;;0.93;;
16640;SDS011;8434;47.990;7.880;2022-11-11T02:58:47;0.90;;;0.90;;
16640;SDS011;8434;47.990;7.880;2022-11-11T03:01:31;4.97;;;1.23;;
16640;SDS011;8434;47.990;7.880;2022-11-11T03:04:16;1.10;;;1.00;;
16640;SDS011;8434;47.990;7.880;2022-11-11T03:07:01;0.93;;;0.93;;
16640;SDS011;8434;47.990;7.880;2022-11-11T03:09:46;1.97;;;1.03;;
16640;SDS011;8434;47.990;7.880;2022-11-11T03:12:31;1.20;;;1.00;;
16640;SDS011;8434;47.990;7.880;2022-11-11T03:15:17;2.40;;;1.00;;
16640;SDS011;8434;47.990;7.880;2022-11-11T03:18:02;3.77;;;1.40;;
16640;SDS011;8434;47.990;7.880;2022-11-11T03:20:46;1.30;;;1.00;;
16640;SDS011;8434;47.990;7.880;2022-11-11T03:23:50;1.67;;;1.00;;
16640;SDS011;8434;47.990;7.880;2022-11-11T03:26:35;0.97;;;0.80;;
16640;SDS011;8434;47.990;7.880;2022-11-11T03:29:19;3.50;;;1.30;;
16640;SDS011;8434;47.990;7.880;2022-11-11T03:32:06;3.90;;;1.10;;
16640;SDS011;8434;47.990;7.880;2022-11-11T03:34:51;1.63;;;0.90;;
16640;SDS011;8434;47.990;7.880;2022-11-11T03:37:36;2.40;;;1.00;;
16640;SDS011;8434;47.990;7.880;2022-11-11T03:40:39;1.47;;;1.10;;
16640;SDS011;8434;47.990;7.880;2022-11-11T03:43:25;1.50;;;0.90;;
16640;SDS011;8434;47.990;7.880;2022-11-11T03:46:10;2.00;;;1.10;;
16640;SDS011;8434;47.990;7.880;2022-11-11T03:48:56;1.90;;;1.10;;
16640;SDS011;8434;47.990;7.880;2022-11-11T03:51:41;3.30;;;1.10;;
16640;SDS011;8434;47.990;7.880;2022-11-11T03:54:26;1.50;;;1.20;;
16640;SDS011;8434;47.990;7.880;2022-11-11T03:57:11;1.53;;;1.00;;
16640;SDS011;8434;47.990;7.880;2022-11-11T04:00:15;1.17;;;0.90;;
16640;SDS011;8434;47.990;7.880;2022-11-11T04:03:00;3.63;;;0.90;;
16640;SDS011;8434;47.990;7.880;2022-11-11T04:06:06;1.20;;;1.10;;
16640;SDS011;8434;47.990;7.880;2022-11-11T04:09:09;2.30;;;1.10;;
16640;SDS011;8434;47.990;7.880;2022-11-11T04:12:12;1.03;;;0.97;;
16640;SDS011;8434;47.990;7.880;2022-11-11T04:14:57;1.07;;;0.90;;
16640;SDS011;8434;47.990;7.880;2022-11-11T04:18:00;1.27;;;0.80;;
16640;SDS011;8434;47.990;7.880;2022-11-11T04:20:45;2.60;;;1.40;;
16640;SDS011;8434;47.990;7.880;2022-11-11T04:23:49;1.70;;;1.00;;
16640;SDS011;8434;47.990;7.880;2022-11-11T04:26:34;2.63;;;1.63;;
16640;SDS011;8434;47.990;7.880;2022-11-11T04:29:18;2.07;;;1.00;;
16640;SDS011;8434;47.990;7.880;2022-11-11T04:32:13;3.00;;;1.20;;
16640;SDS011;8434;47.990;7.880;2022-11-11T04:35:16;2.03;;;1.20;;
16640;SDS011;8434;47.990;7.880;2022-11-11T04:38:00;3.53;;;0.97;;
16640;SDS011;8434;47.990;7.880;2022-11-11T04:41:03;1.20;;;1.10;;
16640;SDS011;8434;47.990;7.880;2022-11-11T04:43:49;2.50;;;0.87;;
16640;SDS011;8434;47.990;7.880;2022-11-11T04:46:52;1.50;;;1.07;;
16640;SDS011;8434;47.990;7.880;2022-11-11T04:49:37;1.93;;;1.07;;
16640;SDS011;8434;47.990;7.880;2022-11-11T04:52:21;1.20;;;1.10;;
16640;SDS011;8434;47.990;7.880;2022-11-11T04:55:13;2.43;;;1.20;;
16640;SDS011;8434;47.990;7.880;2022-11-11T04:58:18;2.10;;;1.30;;
16640;SDS011;8434;47.990;7.880;2022-11-11T05:01:03;2.27;;;1.20;;
16640;SDS011;8434;47.990;7.880;2022-11-11T05:03:48;1.40;;;1.10;;
16640;SDS011;8434;47.990;7.880;2022-11-11T05:06:32;1.63;;;1.00;;
16640;SDS011;8434;47.990;7.880;2022-11-11T05:09:35;1.40;;;1.30;;
16640;SDS011;8434;47.990;7.880;2022-11-11T05:12:20;1.23;;;1.13;;
16640;SDS011;8434;47.990;7.880;2022-11-11T05:15:09;4.33;;;1.77;;
16640;SDS011;8434;47.990;7.880;2022-11-11T05:18:13;1.73;;;1.00;;
16640;SDS011;8434;47.990;7.880;2022-11-11T05:21:17;3.40;;;1.50;;
16640;SDS011;8434;47.990;7.880;2022-11-11T05:24:05;2.67;;;1.20;;
16640;SDS011;8434;47.990;7.880;2022-11-11T05:27:08;1.40;;;1.30;;
16640;SDS011;8434;47.990;7.880;2022-11-11T05:29:53;1.20;;;1.10;;
16640;SDS011;8434;47.990;7.880;2022-11-11T05:32:40;2.03;;;0.90;;
16640;SDS011;8434;47.990;7.880;2022-11-11T05:35:25;4.00;;;1.13;;
16640;SDS011;8434;47.990;7.880;2022-11-11T05:38:10;2.03;;;1.30;;
16640;SDS011;8434;47.990;7.880;2022-11-11T05:41:04;1.77;;;1.10;;
16640;SDS011;8434;47.990;7.880;2022-11-11T05:43:49;2.07;;;1.30;;
16640;SDS011;8434;47.990;7.880;2022-11-11T05:46:34;2.33;;;1.20;;
16640;SDS011;8434;47.990;7.880;2022-11-11T05:49:20;1.80;;;1.30;;
16640;SDS011;8434;47.990;7.880;2022-11-11T05:52:05;3.37;;;1.43;;
16640;SDS011;8434;47.990;7.880;2022-11-11T05:54:50;4.33;;;1.53;;
16640;SDS011;8434;47.990;7.880;2022-11-11T05:57:35;2.87;;;1.33;;
16640;SDS011;8434;47.990;7.880;2022-11-11T06:00:20;2.50;;;1.43;;
16640;SDS011;8434;47.990;7.880;2022-11-11T06:03:05;4.30;;;1.60;;
16640;SDS011;8434;47.990;7.880;2022-11-11T06:05:51;4.13;;;1.63;;
16640;SDS011;8434;47.990;7.880;2022-11-11T06:08:37;5.63;;;1.83;;
16640;SDS011;8434;47.990;7.880;2022-11-11T06:11:22;2.20;;;1.70;;
16640;SDS011;8434;47.990;7.880;2022-11-11T06:14:07;3.37;;;1.63;;
16640;SDS011;8434;47.990;7.880;2022-11-11T06:16:52;3.13;;;2.13;;
16640;SDS011;8434;47.990;7.880;2022-11-11T06:19:38;2.50;;;1.80;;
16640;SDS011;8434;47.990;7.880;2022-11-11T06:22:24;2.17;;;1.60;;
16640;SDS011;8434;47.990;7.880;2022-11-11T06:25:23;2.03;;;1.43;;
16640;SDS011;8434;47.990;7.880;2022-11-11T06:28:26;6.83;;;1.63;;
16640;SDS011;8434;47.990;7.880;2022-11-11T06:31:12;2.43;;;1.77;;
16640;SDS011;8434;47.990;7.880;2022-11-11T06:33:58;3.50;;;2.20;;
16640;SDS011;8434;47.990;7.880;2022-11-11T06:36:45;4.80;;;2.50;;
16640;SDS011;8434;47.990;7.880;2022-11-11T06:39:32;4.53;;;2.07;;
16640;SDS011;8434;47.990;7.880;2022-11-11T06:42:17;3.33;;;2.10;;
16640;SDS011;8434;47.990;7.880;2022-11-11T06:45:02;2.57;;;2.07;;
16640;SDS011;8434;47.990;7.880;2022-11-11T06:47:48;2.20;;;1.70;;
16640;SDS011;8434;47.990;7.880;2022-11-11T06:50:33;4.70;;;1.83;;
16640;SDS011;8434;47.990;7.880;2022-11-11T06:53:18;3.57;;;2.17;;
16640;SDS011;8434;47.990;7.880;2022-11-11T06:56:05;2.63;;;1.77;;
16640;SDS011;8434;47.990;7.880;2022-11-11T06:58:51;4.90;;;1.90;;
16640;SDS011;8434;47.990;7.880;2022-11-11T07:01:36;4.60;;;2.97;;
16640;SDS011;8434;47.990;7.880;2022-11-11T07:04:21;3.13;;;2.50;;
16640;SDS011;8434;47.990;7.880;2022-11-11T07:07:05;1.83;;;1.73;;
16640;SDS011;8434;47.990;7.880;2022-11-11T07:09:50;2.80;;;1.70;;
16640;SDS011;8434;47.990;7.880;2022-11-11T07:12:39;1.63;;;1.33;;
16640;SDS011;8434;47.990;7.880;2022-11-11T07:15:24;1.57;;;1.47;;
16640;SDS011;8434;47.990;7.880;2022-11-11T07:18:10;2.10;;;1.50;;
16640;SDS011;8434;47.990;7.880;2022-11-11T07:20:55;1.40;;;1.30;;
16640;SDS011;8434;47.990;7.880;2022-11-11T07:23:40;3.10;;;2.00;;
16640;SDS011;8434;47.990;7.880;2022-11-11T07:26:25;4.53;;;2.27;;
16640;SDS011;8434;47.990;7.880;2022-11-11T07:29:11;2.67;;;1.50;;
16640;SDS011;8434;47.990;7.880;2022-11-11T07:31:57;3.27;;;2.10;;
16640;SDS011;8434;47.990;7.880;2022-11-11T07:34:42;3.20;;;1.87;;
16640;SDS011;8434;47.990;7.880;2022-11-11T07:37:29;2.53;;;2.20;;
16640;SDS011;8434;47.990;7.880;2022-11-11T07:40:15;2.43;;;2.10;;
16640;SDS011;8434;47.990;7.880;2022-11-11T07:43:00;4.83;;;2.60;;
16640;SDS011;8434;47.990;7.880;2022-11-11T07:45:46;2.83;;;2.20;;
16640;SDS011;8434;47.990;7.880;2022-11-11T07:48:41;5.33;;;2.50;;
16640;SDS011;8434;47.990;7.880;2022-11-11T07:51:26;2.33;;;2.07;;
16640;SDS011;8434;47.990;7.880;2022-11-11T07:54:10;3.77;;;2.67;;
16640;SDS011;8434;47.990;7.880;2022-11-11T07:56:55;3.80;;;2.00;;
16640;SDS011;8434;47.990;7.880;2022-11-11T07:59:40;3.30;;;2.20;;
16640;SDS011;8434;47.990;7.880;2022-11-11T08:02:26;4.80;;;2.47;;
16640;SDS011;8434;47.990;7.880;2022-11-11T08:05:12;4.57;;;2.30;;
16640;SDS011;8434;47.990;7.880;2022-11-11T08:08:01;4.90;;;2.57;;
16640;SDS011;8434;47.990;7.880;2022-11-11T08:10:45;4.70;;;2.43;;
16640;SDS011;8434;47.990;7.880;2022-11-11T08:13:30;2.30;;;2.07;;
16640;SDS011;8434;47.990;7.880;2022-11-11T08:16:24;3.37;;;1.90;;
16640;SDS011;8434;47.990;7.880;2022-11-11T08:19:12;2.30;;;1.90;;
16640;SDS011;8434;47.990;7.880;2022-11-11T08:21:57;3.33;;;2.20;;
16640;SDS011;8434;47.990;7.880;2022-11-11T08:24:42;2.47;;;1.70;;
16640;SDS011;8434;47.990;7.880;2022-11-11T08:27:28;2.13;;;1.80;;
16640;SDS011;8434;47.990;7.880;2022-11-11T08:30:13;3.17;;;1.63;;
16640;SDS011;8434;47.990;7.880;2022-11-11T08:32:58;3.13;;;2.10;;
16640;SDS011;8434;47.990;7.880;2022-11-11T08:35:45;2.57;;;2.10;;
16640;SDS011;8434;47.990;7.880;2022-11-11T08:38:30;3.10;;;2.07;;
16640;SDS011;8434;47.990;7.880;2022-11-11T08:41:15;2.37;;;1.83;;
16640;SDS011;8434;47.990;7.880;2022-11-11T08:44:00;2.70;;;1.90;;
16640;SDS011;8434;47.990;7.880;2022-11-11T08:46:47;2.73;;;2.20;;
16640;SDS011;8434;47.990;7.880;2022-11-11T08:49:32;2.40;;;2.00;;
16640;SDS011;8434;47.990;7.880;2022-11-11T08:52:18;3.60;;;1.80;;
16640;SDS011;8434;47.990;7.880;2022-11-11T08:55:03;3.30;;;1.90;;
16640;SDS011;8434;47.990;7.880;2022-11-11T08:57:55;3.73;;;2.10;;
16640;SDS011;8434;47.990;7.880;2022-11-11T09:00:40;2.63;;;1.80;;
16640;SDS011;8434;47.990;7.880;2022-11-11T09:03:26;7.47;;;2.27;;
16640;SDS011;8434;47.990;7.880;2022-11-11T09:06:11;2.50;;;1.67;;
16640;SDS011;8434;47.990;7.880;2022-11-11T09:08:57;4.10;;;1.60;;
16640;SDS011;8434;47.990;7.880;2022-11-11T09:11:43;2.60;;;1.67;;
16640;SDS011;8434;47.990;7.880;2022-11-11T09:14:27;6.97;;;2.50;;
16640;SDS011;8434;47.990;7.880;2022-11-11T09:17:12;7.80;;;2.70;;
16640;SDS011;8434;47.990;7.880;2022-11-11T09:19:57;7.53;;;3.43;;
16640;SDS011;8434;47.990;7.880;2022-11-11T09:22:42;3.63;;;2.97;;
16640;SDS011;8434;47.990;7.880;2022-11-11T09:25:29;5.57;;;2.83;;
16640;SDS011;8434;47.990;7.880;2022-11-11T09:28:14;4.30;;;3.67;;
16640;SDS011;8434;47.990;7.880;2022-11-11T09:30:59;9.77;;;4.17;;
16640;SDS011;8434;47.990;7.880;2022-11-11T09:33:44;5.43;;;3.33;;
16640;SDS011;8434;47.990;7.880;2022-11-11T09:36:29;4.23;;;3.57;;
16640;SDS011;8434;47.990;7.880;2022-11-11T09:39:14;5.57;;;3.47;;
16640;SDS011;8434;47.990;7.880;2022-11-11T09:42:02;4.43;;;3.33;;
16640;SDS011;8434;47.990;7.880;2022-11-11T09:44:58;4.53;;;3.70;;
16640;SDS011;8434;47.990;7.880;2022-11-11T09:47:47;3.87;;;3.03;;
16640;SDS011;8434;47.990;7.880;2022-11-11T09:50:36;3.63;;;2.97;;
16640;SDS011;8434;47.990;7.880;2022-11-11T09:53:23;2.90;;;2.50;;
16640;SDS011;8434;47.990;7.880;2022-11-11T09:56:10;5.07;;;2.80;;
16640;SDS011;8434;47.990;7.880;2022-11-11T09:58:59;4.10;;;2.90;;
16640;SDS011;8434;47.990;7.880;2022-11-11T10:01:47;4.30;;;2.77;;
16640;SDS011;8434;47.990;7.880;2022-11-11T10:04:34;3.63;;;2.60;;
16640;SDS011;8434;47.990;7.880;2022-11-11T10:07:25;4.40;;;2.60;;
16640;SDS011;8434;47.990;7.880;2022-11-11T10:10:14;3.93;;;2.60;;
16640;SDS011;8434;47.990;7.880;2022-11-11T10:13:12;5.33;;;2.60;;
16640;SDS011;8434;47.990;7.880;2022-11-11T10:16:01;4.00;;;2.47;;
16640;SDS011;8434;47.990;7.880;2022-11-11T10:18:51;4.53;;;2.97;;
16640;SDS011;8434;47.990;7.880;2022-11-11T10:21:40;3.50;;;2.63;;
16640;SDS011;8434;47.990;7.880;2022-11-11T10:24:28;3.70;;;3.00;;
16640;SDS011;8434;47.990;7.880;2022-11-11T10:27:14;5.17;;;3.00;;
16640;SDS011;8434;47.990;7.880;2022-11-11T10:30:00;3.93;;;3.23;;
16640;SDS011;8434;47.990;7.880;2022-11-11T10:32:53;6.87;;;3.87;;
16640;SDS011;8434;47.990;7.880;2022-11-11T10:35:40;3.80;;;3.13;;
16640;SDS011;8434;47.990;7.880;2022-11-11T10:38:44;3.70;;;3.23;;
16640;SDS011;8434;47.990;7.880;2022-11-11T10:41:31;5.30;;;3.27;;
16640;SDS011;8434;47.990;7.880;2022-11-11T10:44:18;6.00;;;3.80;;
16640;SDS011;8434;47.990;7.880;2022-11-11T10:47:05;5.10;;;3.40;;
16640;SDS011;8434;47.990;7.880;2022-11-11T10:49:57;3.97;;;3.50;;
16640;SDS011;8434;47.990;7.880;2022-11-11T10:52:46;4.03;;;3.23;;
16640;SDS011;8434;47.990;7.880;2022-11-11T10:55:33;6.50;;;3.67;;
16640;SDS011;8434;47.990;7.880;2022-11-11T10:58:20;3.87;;;3.37;;
16640;SDS011;8434;47.990;7.880;2022-11-11T11:01:09;4.97;;;3.17;;
16640;SDS011;8434;47.990;7.880;2022-11-11T11:03:54;6.40;;;3.17;;
16640;SDS011;8434;47.990;7.880;2022-11-11T11:06:43;5.40;;;4.00;;
16640;SDS011;8434;47.990;7.880;2022-11-11T11:09:32;4.53;;;3.23;;
16640;SDS011;8434;47.990;7.880;2022-11-11T11:12:21;7.20;;;3.47;;
16640;SDS011;8434;47.990;7.880;2022-11-11T11:15:12;5.97;;;3.60;;
16640;SDS011;8434;47.990;7.880;2022-11-11T11:17:59;5.37;;;3.63;;
16640;SDS011;8434;47.990;7.880;2022-11-11T11:20:53;5.73;;;3.43;;
16640;SDS011;8434;47.990;7.880;2022-11-11T11:23:41;7.50;;;3.60;;
16640;SDS011;8434;47.990;7.880;2022-11-11T11:26:26;7.03;;;4.00;;
16640;SDS011;8434;47.990;7.880;2022-11-11T11:29:27;4.73;;;4.17;;
16640;SDS011;8434;47.990;7.880;2022-11-11T11:32:14;4.73;;;3.23;;
16640;SDS011;8434;47.990;7.880;2022-11-11T11:35:00;7.83;;;3.87;;
16640;SDS011;8434;47.990;7.880;2022-11-11T11:37:50;5.17;;;3.37;;
16640;SDS011;8434;47.990;7.880;2022-11-11T11:40:46;4.20;;;3.67;;
16640;SDS011;8434;47.990;7.880;2022-11-11T11:43:32;6.00;;;3.90;;
16640;SDS011;8434;47.990;7.880;2022-11-11T11:46:18;4.80;;;3.33;;
16640;SDS011;8434;47.990;7.880;2022-11-11T11:49:08;4.77;;;3.47;;
16640;SDS011;8434;47.990;7.880;2022-11-11T11:51:56;5.13;;;3.97;;
16640;SDS011;8434;47.990;7.880;2022-11-11T11:54:48;6.23;;;3.83;;
16640;SDS011;8434;47.990;7.880;2022-11-11T11:57:48;4.53;;;3.07;;
16640;SDS011;8434;47.990;7.880;2022-11-11T12:00:35;6.70;;;3.63;;
16640;SDS011;8434;47.990;7.880;2022-11-11T12:03:30;4.67;;;3.80;;
16640;SDS011;8434;47.990;7.880;2022-11-11T12:06:20;6.43;;;3.80;;
16640;SDS011;8434;47.990;7.880;2022-11-11T12:09:12;5.23;;;3.50;;
16640;SDS011;8434;47.990;7.880;2022-11-11T12:12:00;4.73;;;3.60;;
16640;SDS011;8434;47.990;7.880;2022-11-11T12:14:52;6.10;;;3.03;;
16640;SDS011;8434;47.990;7.880;2022-11-11T12:17:44;3.90;;;2.83;;
16640;SDS011;8434;47.990;7.880;2022-11-11T12:20:33;3.17;;;2.33;;
16640;SDS011;8434;47.990;7.880;2022-11-11T12:26:27;3.50;;;2.47;;
16640;SDS011;8434;47.990;7.880;2022-11-11T12:29:21;5.73;;;3.30;;
16640;SDS011;8434;47.990;7.880;2022-11-11T12:32:29;5.47;;;3.00;;
16640;SDS011;8434;47.990;7.880;2022-11-11T12:35:20;5.37;;;3.87;;
16640;SDS011;8434;47.990;7.880;2022-11-11T12:38:14;3.67;;;3.37;;
16640;SDS011;8434;47.990;7.880;2022-11-11T12:41:03;7.27;;;3.70;;
16640;SDS011;8434;47.990;7.880;2022-11-11T12:43:53;10.10;;;3.30;;
16640;SDS011;8434;47.990;7.880;2022-11-11T12:46:46;4.40;;;3.03;;
16640;SDS011;8434;47.990;7.880;2022-11-11T12:49:48;6.37;;;3.47;;
16640;SDS011;8434;47.990;7.880;2022-11-11T12:52:37;4.13;;;3.10;;
16640;SDS011;8434;47.990;7.880;2022-11-11T12:55:28;5.17;;;3.10;;
16640;SDS011;8434;47.990;7.880;2022-11-11T12:58:17;5.53;;;3.33;;
16640;SDS011;8434;47.990;7.880;2022-11-11T13:01:09;2.93;;;2.40;;
16640;SDS011;8434;47.990;7.880;2022-11-11T13:04:13;3.23;;;2.43;;
16640;SDS011;8434;47.990;7.880;2022-11-11T13:07:13;3.47;;;2.67;;
16640;SDS011;8434;47.990;7.880;2022-11-11T13:10:07;4.43;;;3.47;;
16640;SDS011;8434;47.990;7.880;2022-11-11T13:12:58;3.40;;;2.77;;
16640;SDS011;8434;47.990;7.880;2022-11-11T13:15:47;4.03;;;2.60;;
16640;SDS011;8434;47.990;7.880;2022-11-11T13:18:36;3.10;;;2.30;;
16640;SDS011;8434;47.990;7.880;2022-11-11T13:21:24;4.37;;;2.43;;
16640;SDS011;8434;47.990;7.880;2022-11-11T13:24:11;3.27;;;2.17;;
16640;SDS011;8434;47.990;7.880;2022-11-11T13:26:57;2.40;;;2.20;;
16640;SDS011;8434;47.990;7.880;2022-11-11T13:29:52;4.83;;;2.80;;
16640;SDS011;8434;47.990;7.880;2022-11-11T13:32:43;4.47;;;2.77;;
16640;SDS011;8434;47.990;7.880;2022-11-11T13:35:30;6.10;;;2.63;;
16640;SDS011;8434;47.990;7.880;2022-11-11T13:38:26;3.70;;;2.43;;
16640;SDS011;8434;47.990;7.880;2022-11-11T13:41:17;5.30;;;2.47;;
16640;SDS011;8434;47.990;7.880;2022-11-11T13:44:05;3.60;;;2.33;;
16640;SDS011;8434;47.990;7.880;2022-11-11T13:46:52;4.00;;;2.30;;
16640;SDS011;8434;47.990;7.880;2022-11-11T13:49:44;4.07;;;2.50;;
16640;SDS011;8434;47.990;7.880;2022-11-11T13:52:30;4.40;;;2.80;;
16640;SDS011;8434;47.990;7.880;2022-11-11T13:55:22;3.87;;;2.70;;
16640;SDS011;8434;47.990;7.880;2022-11-11T13:58:18;3.27;;;2.50;;
16640;SDS011;8434;47.990;7.880;2022-11-11T14:01:05;3.83;;;2.50;;
16640;SDS011;8434;47.990;7.880;2022-11-11T14:03:59;4.50;;;2.30;;
16640;SDS011;8434;47.990;7.880;2022-11-11T14:06:52;2.70;;;2.00;;
16640;SDS011;8434;47.990;7.880;2022-11-11T14:12:41;2.80;;;2.03;;
16640;SDS011;8434;47.990;7.880;2022-11-11T14:15:36;2.83;;;1.80;;
16640;SDS011;8434;47.990;7.880;2022-11-11T14:18:32;4.23;;;2.17;;
16640;SDS011;8434;47.990;7.880;2022-11-11T14:24:24;4.03;;;2.43;;
16640;SDS011;8434;47.990;7.880;2022-11-11T14:27:13;4.50;;;2.67;;
16640;SDS011;8434;47.990;7.880;2022-11-11T14:29:59;4.47;;;2.07;;
16640;SDS011;8434;47.990;7.880;2022-11-11T14:32:47;4.17;;;2.30;;
16640;SDS011;8434;47.990;7.880;2022-11-11T14:35:35;3.67;;;3.13;;
16640;SDS011;8434;47.990;7.880;2022-11-11T14:38:37;3.10;;;2.70;;
16640;SDS011;8434;47.990;7.880;2022-11-11T14:41:46;3.93;;;3.00;;
16640;SDS011;8434;47.990;7.880;2022-11-11T14:44:39;7.63;;;4.83;;
16640;SDS011;8434;47.990;7.880;2022-11-11T14:47:31;4.80;;;2.40;;
16640;SDS011;8434;47.990;7.880;2022-11-11T14:53:23;4.77;;;2.50;;
16640;SDS011;8434;47.990;7.880;2022-11-11T14:56:11;2.57;;;2.17;;
16640;SDS011;8434;47.990;7.880;2022-11-11T14:58:59;4.40;;;2.47;;
16640;SDS011;8434;47.990;7.880;2022-11-11T15:01:52;4.93;;;3.53;;
16640;SDS011;8434;47.990;7.880;2022-11-11T15:04:37;4.97;;;2.77;;
16640;SDS011;8434;47.990;7.880;2022-11-11T15:07:25;5.83;;;2.60;;
16640;SDS011;8434;47.990;7.880;2022-11-11T15:10:17;5.70;;;2.93;;
16640;SDS011;8434;47.990;7.880;2022-11-11T15:16:08;6.60;;;2.93;;
16640;SDS011;8434;47.990;7.880;2022-11-11T15:18:58;5.67;;;3.77;;
16640;SDS011;8434;47.990;7.880;2022-11-11T15:21:48;5.20;;;3.37;;
16640;SDS011;8434;47.990;7.880;2022-11-11T15:24:37;3.97;;;3.40;;
16640;SDS011;8434;47.990;7.880;2022-11-11T15:27:27;5.63;;;3.83;;
16640;SDS011;8434;47.990;7.880;2022-11-11T15:30:17;6.43;;;4.00;;
16640;SDS011;8434;47.990;7.880;2022-11-11T15:33:03;5.07;;;3.90;;
16640;SDS011;8434;47.990;7.880;2022-11-11T15:35:51;4.50;;;3.70;;
16640;SDS011;8434;47.990;7.880;2022-11-11T15:38:45;7.00;;;4.17;;
16640;SDS011;8434;47.990;7.880;2022-11-11T15:41:31;6.43;;;3.83;;
16640;SDS011;8434;47.990;7.880;2022-11-11T15:44:20;6.47;;;3.80;;
16640;SDS011;8434;47.990;7.880;2022-11-11T15:47:06;7.80;;;4.63;;
16640;SDS011;8434;47.990;7.880;2022-11-11T15:49:51;6.97;;;4.30;;
16640;SDS011;8434;47.990;7.880;2022-11-11T15:52:36;6.93;;;4.73;;
16640;SDS011;8434;47.990;7.880;2022-11-11T15:55:22;8.23;;;4.80;;
16640;SDS011;8434;47.990;7.880;2022-11-11T15:58:08;10.17;;;5.70;;
16640;SDS011;8434;47.990;7.880;2022-11-11T16:00:55;6.27;;;4.80;;
16640;SDS011;8434;47.990;7.880;2022-11-11T16:03:41;6.83;;;5.33;;
16640;SDS011;8434;47.990;7.880;2022-11-11T16:06:27;8.03;;;5.03;;
16640;SDS011;8434;47.990;7.880;2022-11-11T16:09:13;7.70;;;4.73;;
16640;SDS011;8434;47.990;7.880;2022-11-11T16:11:59;8.83;;;6.27;;
16640;SDS011;8434;47.990;7.880;2022-11-11T16:14:45;6.73;;;4.90;;
16640;SDS011;8434;47.990;7.880;2022-11-11T16:17:33;8.63;;;4.70;;
16640;SDS011;8434;47.990;7.880;2022-11-11T16:20:24;9.93;;;5.47;;
16640;SDS011;8434;47.990;7.880;2022-11-11T16:23:12;7.77;;;5.20;;
16640;SDS011;8434;47.990;7.880;2022-11-11T16:25:59;6.37;;;4.00;;
16640;SDS011;8434;47.990;7.880;2022-11-11T16:28:48;8.77;;;4.90;;
16640;SDS011;8434;47.990;7.880;2022-11-11T16:31:38;5.07;;;4.17;;
16640;SDS011;8434;47.990;7.880;2022-11-11T16:34:32;5.00;;;3.87;;
16640;SDS011;8434;47.990;7.880;2022-11-11T16:37:19;4.87;;;3.33;;
16640;SDS011;8434;47.990;7.880;2022-11-11T16:43:13;9.80;;;6.43;;
16640;SDS011;8434;47.990;7.880;2022-11-11T16:46:00;7.23;;;4.73;;
16640;SDS011;8434;47.990;7.880;2022-11-11T16:48:47;8.23;;;4.40;;
16640;SDS011;8434;47.990;7.880;2022-11-11T16:51:37;7.90;;;4.80;;
16640;SDS011;8434;47.990;7.880;2022-11-11T16:54:25;5.13;;;4.63;;
16640;SDS011;8434;47.990;7.880;2022-11-11T16:57:11;6.30;;;4.30;;
16640;SDS011;8434;47.990;7.880;2022-11-11T17:00:00;7.73;;;5.47;;
16640;SDS011;8434;47.990;7.880;2022-11-11T17:02:46;7.40;;;4.40;;
16640;SDS011;8434;47.990;7.880;2022-11-11T17:05:49;7.33;;;4.60;;
16640;SDS011;8434;47.990;7.880;2022-11-11T17:08:36;4.00;;;2.90;;
16640;SDS011;8434;47.990;7.880;2022-11-11T17:14:25;5.30;;;3.80;;
16640;SDS011;8434;47.990;7.880;2022-11-11T17:17:10;4.57;;;3.80;;
16640;SDS011;8434;47.990;7.880;2022-11-11T17:19:55;6.67;;;3.87;;
16640;SDS011;8434;47.990;7.880;2022-11-11T17:22:45;4.70;;;3.50;;
16640;SDS011;8434;47.990;7.880;2022-11-11T17:25:31;6.63;;;4.30;;
16640;SDS011;8434;47.990;7.880;2022-11-11T17:28:16;6.47;;;4.77;;
16640;SDS011;8434;47.990;7.880;2022-11-11T17:31:02;5.00;;;3.73;;
16640;SDS011;8434;47.990;7.880;2022-11-11T17:33:48;5.53;;;3.57;;